Other Surface Observations
Issued by NWS Great Falls, MT

Home | Current Version | Previous Version | Graphics & Text | Print | Product List | Glossary On
Versions: 1 2 3 4 5 6 7 8 9 10 11 12 13 14 15 16 17 18 19 20 21 22 23 24 25 26 27 28 29 30 31 32 33 34 35 36 37 38 39 40 41 42 43 44 45 46 47 48 49 50
000
SXUS55 KTFX 282152
OSOTFX
AREA AWOS OBSERVATIONS
NATIONAL WEATHER SERVICE GREAT FALLS MT
0350 PM MDT TUE JUL 28 2015

METAR KPWD 282145Z AUTO 28041G55KT 2 1/2SM 13/11 A2956 RMK PLENTYWOOD
METAR KPO1 282145Z AUTO 27026G37KT 4SM 16/12 A2980 RMK POPLAR
METAR K1S3 282145Z AUTO 27019G27KT 10SM 22/04 A3003 RMK FORSYTH
METAR KS71 282145Z AUTO 28020G24KT 10SM 24/06 A2997 RMK CHINOOK
METAR K79S 282145Z AUTO 29010KT 10SM 23/02 A3007 RMK FORT BENTON
METAR K38S 282145Z AUTO 00000KT 10SM 18/03 A3028 RMK DEER LODGE
METAR K3U3 282145Z AUTO 23007KT 19/00 A3026 RMK ANACONDA
METAR K6S5 282145Z AUTO 10004KT 10SM 21/03 A3024 RMK HAMILTON
METAR KS59 282145Z AUTO 29003KT 10SM 22/04 A3018 RMK LIBBY
METAR K88M 282145Z AUTO 28004KT 10SM 22/04 A3015 RMK EUREKA



USA.gov is the U.S. government's official web portal to all federal, state and local government web resources and services.